sensor_id;sensor_type;location;lat;lon;timestamp;temperature;humidity
45207;DHT22;30950;53.086;21.576;2024-03-07T00:00:07;0.10;99.90
45207;DHT22;30950;53.086;21.576;2024-03-07T00:03:02;0.10;99.90
45207;DHT22;30950;53.086;21.576;2024-03-07T00:05:30;0.10;99.90
45207;DHT22;30950;53.086;21.576;2024-03-07T00:07:58;0.00;99.90
45207;DHT22;30950;53.086;21.576;2024-03-07T00:10:26;0.10;99.90
45207;DHT22;30950;53.086;21.576;2024-03-07T00:12:54;0.00;99.90
45207;DHT22;30950;53.086;21.576;2024-03-07T00:15:22;0.10;99.90
45207;DHT22;30950;53.086;21.576;2024-03-07T00:17:49;0.00;99.90
45207;DHT22;30950;53.086;21.576;2024-03-07T00:20:17;0.00;99.90
45207;DHT22;30950;53.086;21.576;2024-03-07T00:22:47;-0.10;99.90
45207;DHT22;30950;53.086;21.576;2024-03-07T00:25:14;0.00;99.90
45207;DHT22;30950;53.086;21.576;2024-03-07T00:27:47;0.00;99.90
45207;DHT22;30950;53.086;21.576;2024-03-07T00:30:15;-0.10;99.90
45207;DHT22;30950;53.086;21.576;2024-03-07T00:32:46;-0.10;99.90
45207;DHT22;30950;53.086;21.576;2024-03-07T00:35:14;-0.20;99.90
45207;DHT22;30950;53.086;21.576;2024-03-07T00:37:42;-0.10;99.90
45207;DHT22;30950;53.086;21.576;2024-03-07T00:40:10;-0.10;99.90
45207;DHT22;30950;53.086;21.576;2024-03-07T00:42:37;-0.20;99.90
45207;DHT22;30950;53.086;21.576;2024-03-07T00:45:05;-0.10;99.90
45207;DHT22;30950;53.086;21.576;2024-03-07T00:47:32;-0.10;99.90
45207;DHT22;30950;53.086;21.576;2024-03-07T00:50:00;-0.10;99.90
45207;DHT22;30950;53.086;21.576;2024-03-07T00:52:28;-0.30;99.90
45207;DHT22;30950;53.086;21.576;2024-03-07T00:54:55;-0.20;99.90
45207;DHT22;30950;53.086;21.576;2024-03-07T00:57:23;-0.20;99.90
45207;DHT22;30950;53.086;21.576;2024-03-07T00:59:50;-0.20;99.90
45207;DHT22;30950;53.086;21.576;2024-03-07T01:02:18;-0.30;99.90
45207;DHT22;30950;53.086;21.576;2024-03-07T01:04:46;-0.30;99.90
45207;DHT22;30950;53.086;21.576;2024-03-07T01:07:14;-0.30;99.90
45207;DHT22;30950;53.086;21.576;2024-03-07T01:09:41;-0.30;99.90
45207;DHT22;30950;53.086;21.576;2024-03-07T01:12:08;-0.40;99.90
45207;DHT22;30950;53.086;21.576;2024-03-07T01:14:37;-0.40;99.90
45207;DHT22;30950;53.086;21.576;2024-03-07T01:17:05;-0.40;99.90
45207;DHT22;30950;53.086;21.576;2024-03-07T01:19:35;-0.30;99.90
45207;DHT22;30950;53.086;21.576;2024-03-07T01:22:02;-0.40;99.90
45207;DHT22;30950;53.086;21.576;2024-03-07T01:24:30;-0.40;99.90
45207;DHT22;30950;53.086;21.576;2024-03-07T01:26:57;-0.40;99.90
45207;DHT22;30950;53.086;21.576;2024-03-07T01:29:27;-0.40;99.90
45207;DHT22;30950;53.086;21.576;2024-03-07T01:31:55;-0.40;99.90
45207;DHT22;30950;53.086;21.576;2024-03-07T01:34:22;-0.30;99.90
45207;DHT22;30950;53.086;21.576;2024-03-07T01:36:49;-0.40;99.90
45207;DHT22;30950;53.086;21.576;2024-03-07T01:39:16;-0.40;99.90
45207;DHT22;30950;53.086;21.576;2024-03-07T01:41:45;-0.40;99.90
45207;DHT22;30950;53.086;21.576;2024-03-07T01:44:12;-0.40;99.90
45207;DHT22;30950;53.086;21.576;2024-03-07T01:46:40;-0.40;99.90
45207;DHT22;30950;53.086;21.576;2024-03-07T01:49:10;-0.40;99.90
45207;DHT22;30950;53.086;21.576;2024-03-07T01:51:38;-0.50;99.90
45207;DHT22;30950;53.086;21.576;2024-03-07T01:54:06;-0.40;99.90
45207;DHT22;30950;53.086;21.576;2024-03-07T01:56:35;-0.50;99.90
45207;DHT22;30950;53.086;21.576;2024-03-07T01:59:03;-0.50;99.90
45207;DHT22;30950;53.086;21.576;2024-03-07T02:01:32;-0.50;99.90
45207;DHT22;30950;53.086;21.576;2024-03-07T02:03:59;-0.50;99.90
45207;DHT22;30950;53.086;21.576;2024-03-07T02:06:27;-0.50;99.90
45207;DHT22;30950;53.086;21.576;2024-03-07T02:08:55;-0.50;99.90
45207;DHT22;30950;53.086;21.576;2024-03-07T02:11:22;-0.60;99.90
45207;DHT22;30950;53.086;21.576;2024-03-07T02:13:50;-0.50;99.90
45207;DHT22;30950;53.086;21.576;2024-03-07T02:16:18;-0.60;99.90
45207;DHT22;30950;53.086;21.576;2024-03-07T02:18:45;-0.70;99.90
45207;DHT22;30950;53.086;21.576;2024-03-07T02:21:13;-0.60;99.90
45207;DHT22;30950;53.086;21.576;2024-03-07T02:23:40;-0.60;99.90
45207;DHT22;30950;53.086;21.576;2024-03-07T02:26:08;-0.70;99.90
45207;DHT22;30950;53.086;21.576;2024-03-07T02:28:35;-0.60;99.90
45207;DHT22;30950;53.086;21.576;2024-03-07T02:31:03;-0.60;99.90
45207;DHT22;30950;53.086;21.576;2024-03-07T02:33:30;-0.60;99.90
45207;DHT22;30950;53.086;21.576;2024-03-07T02:35:59;-0.60;99.90
45207;DHT22;30950;53.086;21.576;2024-03-07T02:38:27;-0.80;99.90
45207;DHT22;30950;53.086;21.576;2024-03-07T02:40:54;-0.60;99.90
45207;DHT22;30950;53.086;21.576;2024-03-07T02:43:21;-0.60;99.90
45207;DHT22;30950;53.086;21.576;2024-03-07T02:45:49;-0.70;99.90
45207;DHT22;30950;53.086;21.576;2024-03-07T02:48:17;-0.70;99.90
45207;DHT22;30950;53.086;21.576;2024-03-07T02:50:46;-0.70;99.90
45207;DHT22;30950;53.086;21.576;2024-03-07T02:53:14;-0.60;99.90
45207;DHT22;30950;53.086;21.576;2024-03-07T02:55:42;-0.70;99.90
45207;DHT22;30950;53.086;21.576;2024-03-07T02:58:09;-0.40;99.90
45207;DHT22;30950;53.086;21.576;2024-03-07T03:00:37;-0.70;99.90
45207;DHT22;30950;53.086;21.576;2024-03-07T03:03:04;-0.70;99.90
45207;DHT22;30950;53.086;21.576;2024-03-07T03:05:31;-0.70;99.90
45207;DHT22;30950;53.086;21.576;2024-03-07T03:07:59;-0.80;99.90
45207;DHT22;30950;53.086;21.576;2024-03-07T03:10:27;-0.70;99.90
45207;DHT22;30950;53.086;21.576;2024-03-07T03:12:58;1.20;99.90
45207;DHT22;30950;53.086;21.576;2024-03-07T03:15:27;-0.70;99.90
45207;DHT22;30950;53.086;21.576;2024-03-07T03:17:54;-0.80;99.90
45207;DHT22;30950;53.086;21.576;2024-03-07T03:20:22;-0.80;99.90
45207;DHT22;30950;53.086;21.576;2024-03-07T03:22:52;-0.80;99.90
45207;DHT22;30950;53.086;21.576;2024-03-07T03:25:40;-0.80;99.90
45207;DHT22;30950;53.086;21.576;2024-03-07T03:28:08;-0.10;99.90
45207;DHT22;30950;53.086;21.576;2024-03-07T03:30:40;-0.90;99.90
45207;DHT22;30950;53.086;21.576;2024-03-07T03:33:08;-0.80;99.90
45207;DHT22;30950;53.086;21.576;2024-03-07T03:35:36;-0.90;99.90
45207;DHT22;30950;53.086;21.576;2024-03-07T03:38:03;-0.90;99.90
45207;DHT22;30950;53.086;21.576;2024-03-07T03:40:31;-0.90;99.90
45207;DHT22;30950;53.086;21.576;2024-03-07T03:42:58;-0.90;99.90
45207;DHT22;30950;53.086;21.576;2024-03-07T03:45:26;-1.00;99.90
45207;DHT22;30950;53.086;21.576;2024-03-07T03:47:54;-1.00;99.90
45207;DHT22;30950;53.086;21.576;2024-03-07T03:50:21;-0.90;99.90
45207;DHT22;30950;53.086;21.576;2024-03-07T03:52:51;-1.00;99.90
45207;DHT22;30950;53.086;21.576;2024-03-07T03:55:19;-1.00;99.90
45207;DHT22;30950;53.086;21.576;2024-03-07T03:57:48;-1.10;99.90
45207;DHT22;30950;53.086;21.576;2024-03-07T04:00:16;-1.20;99.90
45207;DHT22;30950;53.086;21.576;2024-03-07T04:02:45;-1.00;99.90
45207;DHT22;30950;53.086;21.576;2024-03-07T04:05:17;-1.30;99.90
45207;DHT22;30950;53.086;21.576;2024-03-07T04:07:45;-1.10;99.90
45207;DHT22;30950;53.086;21.576;2024-03-07T04:10:14;-1.00;99.90
45207;DHT22;30950;53.086;21.576;2024-03-07T04:12:41;-1.00;99.90
45207;DHT22;30950;53.086;21.576;2024-03-07T04:15:10;-1.10;99.90
45207;DHT22;30950;53.086;21.576;2024-03-07T04:17:37;-1.10;99.90
45207;DHT22;30950;53.086;21.576;2024-03-07T04:20:05;-1.00;99.90
45207;DHT22;30950;53.086;21.576;2024-03-07T04:22:33;-1.00;99.90
45207;DHT22;30950;53.086;21.576;2024-03-07T04:25:01;-1.00;99.90
45207;DHT22;30950;53.086;21.576;2024-03-07T04:27:29;-1.10;99.90
45207;DHT22;30950;53.086;21.576;2024-03-07T04:29:56;-1.00;99.90
45207;DHT22;30950;53.086;21.576;2024-03-07T04:32:23;-1.00;99.90
45207;DHT22;30950;53.086;21.576;2024-03-07T04:34:51;-1.00;99.90
45207;DHT22;30950;53.086;21.576;2024-03-07T04:37:18;-1.00;99.90
45207;DHT22;30950;53.086;21.576;2024-03-07T04:39:45;-1.10;99.90
45207;DHT22;30950;53.086;21.576;2024-03-07T04:42:12;-1.00;99.90
45207;DHT22;30950;53.086;21.576;2024-03-07T04:44:40;-1.00;99.90
45207;DHT22;30950;53.086;21.576;2024-03-07T04:47:08;-1.10;99.90
45207;DHT22;30950;53.086;21.576;2024-03-07T04:49:35;-1.10;99.90
45207;DHT22;30950;53.086;21.576;2024-03-07T04:52:02;-1.00;99.90
45207;DHT22;30950;53.086;21.576;2024-03-07T04:54:30;-1.10;99.90
45207;DHT22;30950;53.086;21.576;2024-03-07T04:56:59;-1.10;99.90
45207;DHT22;30950;53.086;21.576;2024-03-07T04:59:26;-1.20;99.90
45207;DHT22;30950;53.086;21.576;2024-03-07T05:01:54;-1.10;99.90
45207;DHT22;30950;53.086;21.576;2024-03-07T05:04:21;-1.10;99.90
45207;DHT22;30950;53.086;21.576;2024-03-07T05:06:50;-1.10;99.90
45207;DHT22;30950;53.086;21.576;2024-03-07T05:09:18;-1.20;99.90
45207;DHT22;30950;53.086;21.576;2024-03-07T05:11:53;-1.20;99.90
45207;DHT22;30950;53.086;21.576;2024-03-07T05:14:21;-1.20;99.90
45207;DHT22;30950;53.086;21.576;2024-03-07T05:16:54;-1.20;99.90
45207;DHT22;30950;53.086;21.576;2024-03-07T05:19:35;-1.00;99.90
45207;DHT22;30950;53.086;21.576;2024-03-07T05:22:03;-1.30;99.90
45207;DHT22;30950;53.086;21.576;2024-03-07T05:24:33;-1.20;99.90
45207;DHT22;30950;53.086;21.576;2024-03-07T05:27:01;-1.80;99.90
45207;DHT22;30950;53.086;21.576;2024-03-07T05:29:28;-1.30;99.90
45207;DHT22;30950;53.086;21.576;2024-03-07T05:32:17;-1.40;99.90
45207;DHT22;30950;53.086;21.576;2024-03-07T05:34:43;-1.30;99.90
45207;DHT22;30950;53.086;21.576;2024-03-07T05:37:10;-1.30;99.90
45207;DHT22;30950;53.086;21.576;2024-03-07T05:39:38;-1.30;99.90
45207;DHT22;30950;53.086;21.576;2024-03-07T05:44:34;-1.30;99.90
45207;DHT22;30950;53.086;21.576;2024-03-07T05:47:01;-1.20;99.90
45207;DHT22;30950;53.086;21.576;2024-03-07T05:49:28;-1.30;99.90
45207;DHT22;30950;53.086;21.576;2024-03-07T05:51:58;-1.20;99.90
45207;DHT22;30950;53.086;21.576;2024-03-07T05:54:25;-1.20;99.90
45207;DHT22;30950;53.086;21.576;2024-03-07T05:56:52;-1.20;99.90
45207;DHT22;30950;53.086;21.576;2024-03-07T05:59:20;-1.10;99.90
45207;DHT22;30950;53.086;21.576;2024-03-07T06:01:48;-1.20;99.90
45207;DHT22;30950;53.086;21.576;2024-03-07T06:04:15;-1.10;99.90
45207;DHT22;30950;53.086;21.576;2024-03-07T06:06:42;-1.10;99.90
45207;DHT22;30950;53.086;21.576;2024-03-07T06:09:10;-1.10;99.90
45207;DHT22;30950;53.086;21.576;2024-03-07T06:11:37;-1.10;99.90
45207;DHT22;30950;53.086;21.576;2024-03-07T06:14:06;-1.00;99.90
45207;DHT22;30950;53.086;21.576;2024-03-07T06:16:36;-1.00;99.90
45207;DHT22;30950;53.086;21.576;2024-03-07T06:19:06;-0.80;99.90
45207;DHT22;30950;53.086;21.576;2024-03-07T06:21:38;-0.90;99.90
45207;DHT22;30950;53.086;21.576;2024-03-07T06:24:09;-0.80;99.90
45207;DHT22;30950;53.086;21.576;2024-03-07T06:26:38;-0.70;99.90
45207;DHT22;30950;53.086;21.576;2024-03-07T06:29:16;-0.60;99.90
45207;DHT22;30950;53.086;21.576;2024-03-07T06:31:44;-0.60;99.90
45207;DHT22;30950;53.086;21.576;2024-03-07T06:34:14;-0.70;99.90
45207;DHT22;30950;53.086;21.576;2024-03-07T06:36:41;-0.50;99.90
45207;DHT22;30950;53.086;21.576;2024-03-07T06:39:08;-0.10;99.90
45207;DHT22;30950;53.086;21.576;2024-03-07T06:41:38;-0.30;99.90
45207;DHT22;30950;53.086;21.576;2024-03-07T06:44:06;-0.30;99.90
45207;DHT22;30950;53.086;21.576;2024-03-07T06:46:34;-0.50;99.90
45207;DHT22;30950;53.086;21.576;2024-03-07T06:49:02;-0.10;99.90
45207;DHT22;30950;53.086;21.576;2024-03-07T06:51:29;-0.10;99.90
45207;DHT22;30950;53.086;21.576;2024-03-07T06:53:56;0.00;99.90
45207;DHT22;30950;53.086;21.576;2024-03-07T06:56:24;0.10;99.90
45207;DHT22;30950;53.086;21.576;2024-03-07T06:58:52;0.20;99.90
45207;DHT22;30950;53.086;21.576;2024-03-07T07:01:20;0.20;99.90
45207;DHT22;30950;53.086;21.576;2024-03-07T07:03:48;0.20;99.90
45207;DHT22;30950;53.086;21.576;2024-03-07T07:08:43;0.50;99.90
45207;DHT22;30950;53.086;21.576;2024-03-07T07:11:12;0.60;99.90
45207;DHT22;30950;53.086;21.576;2024-03-07T07:13:40;0.70;99.90
45207;DHT22;30950;53.086;21.576;2024-03-07T07:16:09;0.80;99.90
45207;DHT22;30950;53.086;21.576;2024-03-07T07:18:37;0.90;99.90
45207;DHT22;30950;53.086;21.576;2024-03-07T07:21:05;0.90;99.90
45207;DHT22;30950;53.086;21.576;2024-03-07T07:23:38;1.00;99.90
45207;DHT22;30950;53.086;21.576;2024-03-07T07:26:05;1.20;99.90
45207;DHT22;30950;53.086;21.576;2024-03-07T07:28:33;1.60;99.90
45207;DHT22;30950;53.086;21.576;2024-03-07T07:31:02;1.20;99.90
45207;DHT22;30950;53.086;21.576;2024-03-07T07:33:30;1.40;99.90
45207;DHT22;30950;53.086;21.576;2024-03-07T07:35:58;1.40;99.90
45207;DHT22;30950;53.086;21.576;2024-03-07T07:38:26;1.50;99.90
45207;DHT22;30950;53.086;21.576;2024-03-07T07:40:53;1.60;99.90
45207;DHT22;30950;53.086;21.576;2024-03-07T07:43:20;1.60;99.90
45207;DHT22;30950;53.086;21.576;2024-03-07T07:46:03;1.70;99.90
45207;DHT22;30950;53.086;21.576;2024-03-07T07:48:31;1.80;99.90
45207;DHT22;30950;53.086;21.576;2024-03-07T07:50:58;1.70;99.90
45207;DHT22;30950;53.086;21.576;2024-03-07T07:53:26;2.00;99.90
45207;DHT22;30950;53.086;21.576;2024-03-07T07:55:54;2.00;99.90
45207;DHT22;30950;53.086;21.576;2024-03-07T07:58:22;2.10;99.90
45207;DHT22;30950;53.086;21.576;2024-03-07T08:00:49;2.20;99.90
45207;DHT22;30950;53.086;21.576;2024-03-07T08:03:17;2.20;99.90
45207;DHT22;30950;53.086;21.576;2024-03-07T08:05:45;2.20;99.90
45207;DHT22;30950;53.086;21.576;2024-03-07T08:08:12;2.40;99.90
45207;DHT22;30950;53.086;21.576;2024-03-07T08:10:43;2.40;99.90
45207;DHT22;30950;53.086;21.576;2024-03-07T08:13:13;2.50;99.90
45207;DHT22;30950;53.086;21.576;2024-03-07T08:15:41;2.70;99.90
45207;DHT22;30950;53.086;21.576;2024-03-07T08:18:09;2.60;99.90
45207;DHT22;30950;53.086;21.576;2024-03-07T08:20:38;2.70;99.90
45207;DHT22;30950;53.086;21.576;2024-03-07T08:23:08;2.80;99.90
45207;DHT22;30950;53.086;21.576;2024-03-07T08:25:36;2.90;99.90
45207;DHT22;30950;53.086;21.576;2024-03-07T08:28:03;3.00;99.90
45207;DHT22;30950;53.086;21.576;2024-03-07T08:30:32;3.00;99.90
45207;DHT22;30950;53.086;21.576;2024-03-07T08:33:00;3.00;99.90
45207;DHT22;30950;53.086;21.576;2024-03-07T08:35:30;3.50;99.90
45207;DHT22;30950;53.086;21.576;2024-03-07T08:40:25;3.30;99.90
45207;DHT22;30950;53.086;21.576;2024-03-07T08:42:56;3.40;99.90
45207;DHT22;30950;53.086;21.576;2024-03-07T08:45:24;3.50;99.90
45207;DHT22;30950;53.086;21.576;2024-03-07T08:47:53;3.60;99.90
45207;DHT22;30950;53.086;21.576;2024-03-07T08:50:26;3.70;99.90
45207;DHT22;30950;53.086;21.576;2024-03-07T08:52:54;3.70;99.90
45207;DHT22;30950;53.086;21.576;2024-03-07T08:55:22;3.80;99.90
45207;DHT22;30950;53.086;21.576;2024-03-07T08:57:50;3.90;99.90
45207;DHT22;30950;53.086;21.576;2024-03-07T09:02:54;4.10;99.90
45207;DHT22;30950;53.086;21.576;2024-03-07T09:05:22;4.20;99.90
45207;DHT22;30950;53.086;21.576;2024-03-07T09:07:51;4.10;99.90
45207;DHT22;30950;53.086;21.576;2024-03-07T09:10:19;4.30;99.90
45207;DHT22;30950;53.086;21.576;2024-03-07T09:12:47;4.30;99.90
45207;DHT22;30950;53.086;21.576;2024-03-07T09:15:17;4.30;99.90
45207;DHT22;30950;53.086;21.576;2024-03-07T09:17:46;4.50;99.90
45207;DHT22;30950;53.086;21.576;2024-03-07T09:20:14;4.50;99.90
45207;DHT22;30950;53.086;21.576;2024-03-07T09:22:45;4.60;99.90
45207;DHT22;30950;53.086;21.576;2024-03-07T09:25:14;4.60;99.90
45207;DHT22;30950;53.086;21.576;2024-03-07T09:27:41;4.60;99.90
45207;DHT22;30950;53.086;21.576;2024-03-07T09:32:39;4.70;99.90
45207;DHT22;30950;53.086;21.576;2024-03-07T09:35:07;5.20;99.90
45207;DHT22;30950;53.086;21.576;2024-03-07T09:37:39;4.70;98.90
45207;DHT22;30950;53.086;21.576;2024-03-07T09:40:07;4.70;97.20
45207;DHT22;30950;53.086;21.576;2024-03-07T09:42:34;4.70;99.90
45207;DHT22;30950;53.086;21.576;2024-03-07T09:45:04;4.80;99.90
45207;DHT22;30950;53.086;21.576;2024-03-07T09:47:32;4.80;99.90
45207;DHT22;30950;53.086;21.576;2024-03-07T09:49:59;4.90;99.90
45207;DHT22;30950;53.086;21.576;2024-03-07T09:52:27;4.90;98.10
45207;DHT22;30950;53.086;21.576;2024-03-07T09:54:55;5.00;99.80
45207;DHT22;30950;53.086;21.576;2024-03-07T09:57:23;5.10;94.50
45207;DHT22;30950;53.086;21.576;2024-03-07T09:59:51;5.10;95.10
45207;DHT22;30950;53.086;21.576;2024-03-07T10:02:21;5.20;96.40
45207;DHT22;30950;53.086;21.576;2024-03-07T10:04:51;5.20;94.40
45207;DHT22;30950;53.086;21.576;2024-03-07T10:07:20;5.30;94.10
45207;DHT22;30950;53.086;21.576;2024-03-07T10:09:48;5.40;94.50
45207;DHT22;30950;53.086;21.576;2024-03-07T10:12:18;5.50;91.70
45207;DHT22;30950;53.086;21.576;2024-03-07T10:14:49;5.50;94.20
45207;DHT22;30950;53.086;21.576;2024-03-07T10:17:18;5.60;94.60
45207;DHT22;30950;53.086;21.576;2024-03-07T10:19:48;5.70;94.80
45207;DHT22;30950;53.086;21.576;2024-03-07T10:22:18;5.70;94.60
45207;DHT22;30950;53.086;21.576;2024-03-07T10:24:49;5.90;94.30
45207;DHT22;30950;53.086;21.576;2024-03-07T10:27:18;6.00;93.10
45207;DHT22;30950;53.086;21.576;2024-03-07T10:29:46;6.10;92.20
45207;DHT22;30950;53.086;21.576;2024-03-07T10:32:14;6.10;93.60
45207;DHT22;30950;53.086;21.576;2024-03-07T10:34:46;6.10;93.80
45207;DHT22;30950;53.086;21.576;2024-03-07T10:37:15;6.20;90.80
45207;DHT22;30950;53.086;21.576;2024-03-07T10:39:49;6.30;91.60
45207;DHT22;30950;53.086;21.576;2024-03-07T10:42:17;6.40;88.30
45207;DHT22;30950;53.086;21.576;2024-03-07T10:44:46;6.50;89.50
45207;DHT22;30950;53.086;21.576;2024-03-07T10:47:18;6.50;90.70
45207;DHT22;30950;53.086;21.576;2024-03-07T10:52:29;7.50;97.50
45207;DHT22;30950;53.086;21.576;2024-03-07T11:00:10;8.40;88.70
45207;DHT22;30950;53.086;21.576;2024-03-07T11:02:57;8.30;86.00
45207;DHT22;30950;53.086;21.576;2024-03-07T11:05:28;8.00;86.50
45207;DHT22;30950;53.086;21.576;2024-03-07T11:10:30;8.00;80.70
45207;DHT22;30950;53.086;21.576;2024-03-07T11:12:58;7.80;82.60
45207;DHT22;30950;53.086;21.576;2024-03-07T11:15:26;7.70;83.20
45207;DHT22;30950;53.086;21.576;2024-03-07T11:17:54;7.70;78.30
45207;DHT22;30950;53.086;21.576;2024-03-07T11:20:26;7.60;79.60
45207;DHT22;30950;53.086;21.576;2024-03-07T11:22:53;7.60;80.70
45207;DHT22;30950;53.086;21.576;2024-03-07T11:25:22;7.50;83.50
45207;DHT22;30950;53.086;21.576;2024-03-07T11:30:23;7.60;81.00
45207;DHT22;30950;53.086;21.576;2024-03-07T11:32:51;7.50;82.30
45207;DHT22;30950;53.086;21.576;2024-03-07T11:35:31;7.50;82.20
45207;DHT22;30950;53.086;21.576;2024-03-07T11:37:59;7.50;76.40
45207;DHT22;30950;53.086;21.576;2024-03-07T11:42:54;7.50;79.30
45207;DHT22;30950;53.086;21.576;2024-03-07T11:45:26;7.50;79.20
45207;DHT22;30950;53.086;21.576;2024-03-07T11:47:55;7.50;80.10
45207;DHT22;30950;53.086;21.576;2024-03-07T11:50:39;7.60;80.70
45207;DHT22;30950;53.086;21.576;2024-03-07T11:53:08;7.70;81.90
45207;DHT22;30950;53.086;21.576;2024-03-07T11:55:36;7.80;81.70
45207;DHT22;30950;53.086;21.576;2024-03-07T11:58:19;7.90;79.20
45207;DHT22;30950;53.086;21.576;2024-03-07T12:00:50;7.60;74.60
45207;DHT22;30950;53.086;21.576;2024-03-07T12:03:21;7.60;76.10
45207;DHT22;30950;53.086;21.576;2024-03-07T12:08:19;7.50;78.10
45207;DHT22;30950;53.086;21.576;2024-03-07T12:10:52;7.50;75.20
45207;DHT22;30950;53.086;21.576;2024-03-07T12:13:27;7.50;74.20
45207;DHT22;30950;53.086;21.576;2024-03-07T12:15:55;7.50;76.10
45207;DHT22;30950;53.086;21.576;2024-03-07T12:18:26;7.50;77.10
45207;DHT22;30950;53.086;21.576;2024-03-07T12:20:54;7.50;73.00
45207;DHT22;30950;53.086;21.576;2024-03-07T12:23:23;7.40;73.90
45207;DHT22;30950;53.086;21.576;2024-03-07T12:26:00;7.40;72.50
45207;DHT22;30950;53.086;21.576;2024-03-07T12:28:29;7.30;72.80
45207;DHT22;30950;53.086;21.576;2024-03-07T12:31:02;7.30;74.10
45207;DHT22;30950;53.086;21.576;2024-03-07T12:33:30;7.40;74.40
45207;DHT22;30950;53.086;21.576;2024-03-07T12:36:01;7.40;75.10
45207;DHT22;30950;53.086;21.576;2024-03-07T12:38:38;7.70;76.70
45207;DHT22;30950;53.086;21.576;2024-03-07T12:41:09;7.70;76.50
45207;DHT22;30950;53.086;21.576;2024-03-07T12:43:44;8.00;76.30
45207;DHT22;30950;53.086;21.576;2024-03-07T12:46:16;8.10;71.10
45207;DHT22;30950;53.086;21.576;2024-03-07T12:48:44;8.10;71.50
45207;DHT22;30950;53.086;21.576;2024-03-07T12:51:13;8.10;72.60
45207;DHT22;30950;53.086;21.576;2024-03-07T12:53:47;8.10;72.20
45207;DHT22;30950;53.086;21.576;2024-03-07T12:56:15;8.30;72.00
45207;DHT22;30950;53.086;21.576;2024-03-07T12:58:47;8.50;71.90
45207;DHT22;30950;53.086;21.576;2024-03-07T13:01:17;8.50;71.50
45207;DHT22;30950;53.086;21.576;2024-03-07T13:03:46;8.70;71.80
45207;DHT22;30950;53.086;21.576;2024-03-07T13:06:13;8.70;72.30
45207;DHT22;30950;53.086;21.576;2024-03-07T13:08:42;8.70;71.00
45207;DHT22;30950;53.086;21.576;2024-03-07T13:11:09;8.80;68.90
45207;DHT22;30950;53.086;21.576;2024-03-07T13:13:38;8.80;71.30
45207;DHT22;30950;53.086;21.576;2024-03-07T13:16:05;8.90;71.20
45207;DHT22;30950;53.086;21.576;2024-03-07T13:18:33;8.90;71.40
45207;DHT22;30950;53.086;21.576;2024-03-07T13:21:02;9.00;70.00
45207;DHT22;30950;53.086;21.576;2024-03-07T13:23:32;9.00;69.80
45207;DHT22;30950;53.086;21.576;2024-03-07T13:26:03;9.00;69.50
45207;DHT22;30950;53.086;21.576;2024-03-07T13:28:36;9.10;69.80
45207;DHT22;30950;53.086;21.576;2024-03-07T13:31:03;9.10;69.50
45207;DHT22;30950;53.086;21.576;2024-03-07T13:33:31;9.20;70.30
45207;DHT22;30950;53.086;21.576;2024-03-07T13:36:00;9.20;64.10
45207;DHT22;30950;53.086;21.576;2024-03-07T13:38:28;9.20;65.50
45207;DHT22;30950;53.086;21.576;2024-03-07T13:40:56;9.40;68.90
45207;DHT22;30950;53.086;21.576;2024-03-07T13:43:24;9.50;69.60
45207;DHT22;30950;53.086;21.576;2024-03-07T13:45:51;9.90;71.40
45207;DHT22;30950;53.086;21.576;2024-03-07T13:48:19;10.40;71.20
45207;DHT22;30950;53.086;21.576;2024-03-07T13:50:47;10.70;71.40
45207;DHT22;30950;53.086;21.576;2024-03-07T13:53:29;10.90;72.30
45207;DHT22;30950;53.086;21.576;2024-03-07T14:31:08;14.60;55.80
45207;DHT22;30950;53.086;21.576;2024-03-07T14:36:17;14.30;55.00
45207;DHT22;30950;53.086;21.576;2024-03-07T14:38:51;13.80;53.70
45207;DHT22;30950;53.086;21.576;2024-03-07T14:41:23;13.30;54.20
45207;DHT22;30950;53.086;21.576;2024-03-07T14:43:51;12.80;54.20
45207;DHT22;30950;53.086;21.576;2024-03-07T14:46:18;12.40;55.00
45207;DHT22;30950;53.086;21.576;2024-03-07T14:48:46;12.20;53.70
45207;DHT22;30950;53.086;21.576;2024-03-07T14:51:14;11.80;54.90
45207;DHT22;30950;53.086;21.576;2024-03-07T14:53:42;11.30;55.60
45207;DHT22;30950;53.086;21.576;2024-03-07T14:56:10;11.20;55.70
45207;DHT22;30950;53.086;21.576;2024-03-07T14:58:38;10.80;56.10
45207;DHT22;30950;53.086;21.576;2024-03-07T15:01:07;10.70;57.50
45207;DHT22;30950;53.086;21.576;2024-03-07T15:03:34;10.20;57.50
45207;DHT22;30950;53.086;21.576;2024-03-07T15:06:02;10.10;57.90
45207;DHT22;30950;53.086;21.576;2024-03-07T15:08:30;9.80;58.00
45207;DHT22;30950;53.086;21.576;2024-03-07T15:13:51;9.60;58.30
45207;DHT22;30950;53.086;21.576;2024-03-07T15:16:20;9.30;58.70
45207;DHT22;30950;53.086;21.576;2024-03-07T15:18:59;9.30;58.90
45207;DHT22;30950;53.086;21.576;2024-03-07T15:21:27;9.10;59.70
45207;DHT22;30950;53.086;21.576;2024-03-07T15:23:56;8.80;61.20
45207;DHT22;30950;53.086;21.576;2024-03-07T15:26:25;8.80;61.40
45207;DHT22;30950;53.086;21.576;2024-03-07T15:28:53;8.70;60.70
45207;DHT22;30950;53.086;21.576;2024-03-07T15:31:24;8.50;61.40
45207;DHT22;30950;53.086;21.576;2024-03-07T15:36:19;8.30;62.10
45207;DHT22;30950;53.086;21.576;2024-03-07T15:38:48;8.20;62.40
45207;DHT22;30950;53.086;21.576;2024-03-07T15:41:16;8.00;62.80
45207;DHT22;30950;53.086;21.576;2024-03-07T15:43:43;8.10;62.60
45207;DHT22;30950;53.086;21.576;2024-03-07T15:46:12;7.90;63.10
45207;DHT22;30950;53.086;21.576;2024-03-07T15:48:40;7.80;64.20
45207;DHT22;30950;53.086;21.576;2024-03-07T15:51:08;7.70;64.60
45207;DHT22;30950;53.086;21.576;2024-03-07T15:53:39;7.60;63.70
45207;DHT22;30950;53.086;21.576;2024-03-07T15:56:08;7.50;64.00
45207;DHT22;30950;53.086;21.576;2024-03-07T15:58:36;7.50;64.20
45207;DHT22;30950;53.086;21.576;2024-03-07T16:01:04;7.30;64.90
45207;DHT22;30950;53.086;21.576;2024-03-07T16:03:33;7.20;64.80
45207;DHT22;30950;53.086;21.576;2024-03-07T16:06:00;7.20;65.00
45207;DHT22;30950;53.086;21.576;2024-03-07T16:08:28;7.10;65.10
45207;DHT22;30950;53.086;21.576;2024-03-07T16:10:56;7.00;65.40
45207;DHT22;30950;53.086;21.576;2024-03-07T16:13:23;6.90;65.60
45207;DHT22;30950;53.086;21.576;2024-03-07T16:15:51;6.80;66.30
45207;DHT22;30950;53.086;21.576;2024-03-07T16:18:19;6.80;66.80
45207;DHT22;30950;53.086;21.576;2024-03-07T16:20:51;6.60;66.70
45207;DHT22;30950;53.086;21.576;2024-03-07T16:23:19;6.60;67.30
45207;DHT22;30950;53.086;21.576;2024-03-07T16:25:46;6.40;67.00
45207;DHT22;30950;53.086;21.576;2024-03-07T16:28:13;6.40;67.20
45207;DHT22;30950;53.086;21.576;2024-03-07T16:30:41;6.30;67.40
45207;DHT22;30950;53.086;21.576;2024-03-07T16:33:12;6.20;67.50
45207;DHT22;30950;53.086;21.576;2024-03-07T16:35:40;6.10;68.10
45207;DHT22;30950;53.086;21.576;2024-03-07T16:38:07;6.00;68.10
45207;DHT22;30950;53.086;21.576;2024-03-07T16:40:37;5.90;68.20
45207;DHT22;30950;53.086;21.576;2024-03-07T16:43:09;5.80;68.40
45207;DHT22;30950;53.086;21.576;2024-03-07T16:45:40;5.70;68.60
45207;DHT22;30950;53.086;21.576;2024-03-07T16:48:08;5.60;69.00